sensor_id;sensor_type;location;lat;lon;timestamp;P1;durP1;ratioP1;P2;durP2;ratioP2
34805;SDS011;65084;42.196;25.326;2024-02-26T00:01:57;11.30;;;5.88;;
34805;SDS011;65084;42.196;25.326;2024-02-26T00:04:25;7.63;;;5.82;;
34805;SDS011;65084;42.196;25.326;2024-02-26T00:06:52;12.63;;;5.93;;
34805;SDS011;65084;42.196;25.326;2024-02-26T00:09:22;11.10;;;4.90;;
34805;SDS011;65084;42.196;25.326;2024-02-26T00:11:49;9.13;;;5.32;;
34805;SDS011;65084;42.196;25.326;2024-02-26T00:14:17;7.22;;;5.55;;
34805;SDS011;65084;42.196;25.326;2024-02-26T00:16:44;11.38;;;5.75;;
34805;SDS011;65084;42.196;25.326;2024-02-26T00:19:11;11.13;;;5.25;;
34805;SDS011;65084;42.196;25.326;2024-02-26T00:21:39;7.28;;;5.50;;
34805;SDS011;65084;42.196;25.326;2024-02-26T00:24:07;5.57;;;4.82;;
34805;SDS011;65084;42.196;25.326;2024-02-26T00:26:35;6.88;;;5.43;;
34805;SDS011;65084;42.196;25.326;2024-02-26T00:29:02;6.15;;;5.38;;
34805;SDS011;65084;42.196;25.326;2024-02-26T00:31:29;7.95;;;5.63;;
34805;SDS011;65084;42.196;25.326;2024-02-26T00:33:57;7.95;;;5.57;;
34805;SDS011;65084;42.196;25.326;2024-02-26T00:36:24;5.78;;;5.18;;
34805;SDS011;65084;42.196;25.326;2024-02-26T00:38:52;7.40;;;5.80;;
34805;SDS011;65084;42.196;25.326;2024-02-26T00:41:19;7.57;;;6.00;;
34805;SDS011;65084;42.196;25.326;2024-02-26T00:43:48;7.43;;;5.95;;
34805;SDS011;65084;42.196;25.326;2024-02-26T00:46:15;9.48;;;5.93;;
34805;SDS011;65084;42.196;25.326;2024-02-26T00:48:43;7.82;;;5.65;;
34805;SDS011;65084;42.196;25.326;2024-02-26T00:51:10;6.15;;;5.18;;
34805;SDS011;65084;42.196;25.326;2024-02-26T00:53:37;10.25;;;5.65;;
34805;SDS011;65084;42.196;25.326;2024-02-26T00:56:05;8.40;;;5.72;;
34805;SDS011;65084;42.196;25.326;2024-02-26T00:58:33;11.77;;;6.22;;
34805;SDS011;65084;42.196;25.326;2024-02-26T01:01:01;7.47;;;4.97;;
34805;SDS011;65084;42.196;25.326;2024-02-26T01:03:29;7.22;;;5.38;;
34805;SDS011;65084;42.196;25.326;2024-02-26T01:05:56;8.32;;;5.50;;
34805;SDS011;65084;42.196;25.326;2024-02-26T01:08:23;7.35;;;5.68;;
34805;SDS011;65084;42.196;25.326;2024-02-26T01:10:51;7.47;;;5.47;;
34805;SDS011;65084;42.196;25.326;2024-02-26T01:13:18;7.18;;;5.97;;
34805;SDS011;65084;42.196;25.326;2024-02-26T01:15:45;9.00;;;5.70;;
34805;SDS011;65084;42.196;25.326;2024-02-26T01:18:14;12.10;;;5.53;;
34805;SDS011;65084;42.196;25.326;2024-02-26T01:20:41;10.23;;;5.35;;
34805;SDS011;65084;42.196;25.326;2024-02-26T01:23:09;6.70;;;6.00;;
34805;SDS011;65084;42.196;25.326;2024-02-26T01:25:36;8.25;;;5.97;;
34805;SDS011;65084;42.196;25.326;2024-02-26T01:28:04;7.95;;;5.93;;
34805;SDS011;65084;42.196;25.326;2024-02-26T01:30:31;9.00;;;5.43;;
34805;SDS011;65084;42.196;25.326;2024-02-26T01:32:58;7.60;;;5.82;;
34805;SDS011;65084;42.196;25.326;2024-02-26T01:35:27;7.95;;;5.78;;
34805;SDS011;65084;42.196;25.326;2024-02-26T01:37:55;10.02;;;6.13;;
34805;SDS011;65084;42.196;25.326;2024-02-26T01:40:26;9.10;;;6.00;;
34805;SDS011;65084;42.196;25.326;2024-02-26T01:42:53;10.52;;;6.95;;
34805;SDS011;65084;42.196;25.326;2024-02-26T01:45:20;10.88;;;6.47;;
34805;SDS011;65084;42.196;25.326;2024-02-26T01:47:49;8.68;;;6.78;;
34805;SDS011;65084;42.196;25.326;2024-02-26T01:50:17;10.32;;;6.95;;
34805;SDS011;65084;42.196;25.326;2024-02-26T01:52:46;10.35;;;6.78;;
34805;SDS011;65084;42.196;25.326;2024-02-26T01:55:13;11.35;;;7.45;;
34805;SDS011;65084;42.196;25.326;2024-02-26T01:57:42;9.80;;;7.07;;
34805;SDS011;65084;42.196;25.326;2024-02-26T02:00:11;11.15;;;7.63;;
34805;SDS011;65084;42.196;25.326;2024-02-26T02:02:39;10.40;;;6.88;;
34805;SDS011;65084;42.196;25.326;2024-02-26T02:05:09;7.97;;;7.18;;
34805;SDS011;65084;42.196;25.326;2024-02-26T02:07:38;14.13;;;7.85;;
34805;SDS011;65084;42.196;25.326;2024-02-26T02:10:08;10.65;;;7.70;;
34805;SDS011;65084;42.196;25.326;2024-02-26T02:12:35;11.27;;;7.63;;
34805;SDS011;65084;42.196;25.326;2024-02-26T02:15:05;9.40;;;7.75;;
34805;SDS011;65084;42.196;25.326;2024-02-26T02:17:32;10.85;;;7.45;;
34805;SDS011;65084;42.196;25.326;2024-02-26T02:20:00;9.13;;;7.75;;
34805;SDS011;65084;42.196;25.326;2024-02-26T02:22:30;10.80;;;8.50;;
34805;SDS011;65084;42.196;25.326;2024-02-26T02:24:58;10.63;;;8.60;;
34805;SDS011;65084;42.196;25.326;2024-02-26T02:27:26;13.23;;;8.38;;
34805;SDS011;65084;42.196;25.326;2024-02-26T02:29:54;13.13;;;7.97;;
34805;SDS011;65084;42.196;25.326;2024-02-26T02:32:21;10.45;;;8.07;;
34805;SDS011;65084;42.196;25.326;2024-02-26T02:34:49;10.63;;;8.02;;
34805;SDS011;65084;42.196;25.326;2024-02-26T02:37:16;8.25;;;7.38;;
34805;SDS011;65084;42.196;25.326;2024-02-26T02:39:45;11.68;;;8.35;;
34805;SDS011;65084;42.196;25.326;2024-02-26T02:42:12;13.57;;;7.45;;
34805;SDS011;65084;42.196;25.326;2024-02-26T02:44:40;11.38;;;8.30;;
34805;SDS011;65084;42.196;25.326;2024-02-26T02:47:07;12.60;;;7.40;;
34805;SDS011;65084;42.196;25.326;2024-02-26T02:49:34;10.98;;;7.15;;
34805;SDS011;65084;42.196;25.326;2024-02-26T02:52:02;11.02;;;7.70;;
34805;SDS011;65084;42.196;25.326;2024-02-26T02:54:29;12.18;;;7.63;;
34805;SDS011;65084;42.196;25.326;2024-02-26T02:56:58;12.02;;;8.25;;
34805;SDS011;65084;42.196;25.326;2024-02-26T02:59:25;10.98;;;8.35;;
34805;SDS011;65084;42.196;25.326;2024-02-26T03:01:52;10.90;;;7.25;;
34805;SDS011;65084;42.196;25.326;2024-02-26T03:04:19;12.65;;;7.13;;
34805;SDS011;65084;42.196;25.326;2024-02-26T03:06:47;12.38;;;8.13;;
34805;SDS011;65084;42.196;25.326;2024-02-26T03:09:14;12.82;;;7.97;;
34805;SDS011;65084;42.196;25.326;2024-02-26T03:11:41;9.02;;;7.22;;
34805;SDS011;65084;42.196;25.326;2024-02-26T03:14:10;9.95;;;7.68;;
34805;SDS011;65084;42.196;25.326;2024-02-26T03:16:37;10.63;;;7.20;;
34805;SDS011;65084;42.196;25.326;2024-02-26T03:19:05;13.85;;;7.88;;
34805;SDS011;65084;42.196;25.326;2024-02-26T03:21:32;9.25;;;7.35;;
34805;SDS011;65084;42.196;25.326;2024-02-26T03:23:59;11.77;;;7.55;;
34805;SDS011;65084;42.196;25.326;2024-02-26T03:26:27;11.10;;;7.15;;
34805;SDS011;65084;42.196;25.326;2024-02-26T03:28:56;8.82;;;7.20;;
34805;SDS011;65084;42.196;25.326;2024-02-26T03:31:25;9.57;;;7.18;;
34805;SDS011;65084;42.196;25.326;2024-02-26T03:33:52;9.35;;;7.78;;
34805;SDS011;65084;42.196;25.326;2024-02-26T03:36:19;11.90;;;8.25;;
34805;SDS011;65084;42.196;25.326;2024-02-26T03:38:47;9.88;;;7.88;;
34805;SDS011;65084;42.196;25.326;2024-02-26T03:41:15;11.23;;;7.68;;
34805;SDS011;65084;42.196;25.326;2024-02-26T03:43:42;15.88;;;7.78;;
34805;SDS011;65084;42.196;25.326;2024-02-26T03:46:10;8.65;;;7.30;;
34805;SDS011;65084;42.196;25.326;2024-02-26T03:48:40;10.88;;;7.97;;
34805;SDS011;65084;42.196;25.326;2024-02-26T03:51:08;10.68;;;8.10;;
34805;SDS011;65084;42.196;25.326;2024-02-26T03:53:35;11.73;;;7.93;;
34805;SDS011;65084;42.196;25.326;2024-02-26T03:56:03;8.90;;;7.80;;
34805;SDS011;65084;42.196;25.326;2024-02-26T03:58:30;9.63;;;8.13;;
34805;SDS011;65084;42.196;25.326;2024-02-26T04:00:58;11.68;;;8.10;;
34805;SDS011;65084;42.196;25.326;2024-02-26T04:03:25;13.40;;;7.63;;
34805;SDS011;65084;42.196;25.326;2024-02-26T04:05:54;14.77;;;8.18;;
34805;SDS011;65084;42.196;25.326;2024-02-26T04:08:21;14.30;;;8.63;;
34805;SDS011;65084;42.196;25.326;2024-02-26T04:10:48;9.98;;;7.50;;
34805;SDS011;65084;42.196;25.326;2024-02-26T04:13:17;13.88;;;7.53;;
34805;SDS011;65084;42.196;25.326;2024-02-26T04:15:44;10.65;;;7.68;;
34805;SDS011;65084;42.196;25.326;2024-02-26T04:18:12;8.93;;;7.80;;
34805;SDS011;65084;42.196;25.326;2024-02-26T04:20:40;9.27;;;7.60;;
34805;SDS011;65084;42.196;25.326;2024-02-26T04:23:09;14.45;;;7.88;;
34805;SDS011;65084;42.196;25.326;2024-02-26T04:25:36;12.10;;;7.97;;
34805;SDS011;65084;42.196;25.326;2024-02-26T04:28:04;14.20;;;7.85;;
34805;SDS011;65084;42.196;25.326;2024-02-26T04:30:31;15.35;;;8.18;;
34805;SDS011;65084;42.196;25.326;2024-02-26T04:32:58;9.35;;;7.60;;
34805;SDS011;65084;42.196;25.326;2024-02-26T04:35:26;10.05;;;7.55;;
34805;SDS011;65084;42.196;25.326;2024-02-26T04:37:53;19.63;;;12.32;;
34805;SDS011;65084;42.196;25.326;2024-02-26T04:40:21;26.38;;;16.35;;
34805;SDS011;65084;42.196;25.326;2024-02-26T04:42:49;15.15;;;8.00;;
34805;SDS011;65084;42.196;25.326;2024-02-26T04:45:16;9.13;;;8.07;;
34805;SDS011;65084;42.196;25.326;2024-02-26T04:47:43;13.50;;;8.00;;
34805;SDS011;65084;42.196;25.326;2024-02-26T04:50:11;10.68;;;7.93;;
34805;SDS011;65084;42.196;25.326;2024-02-26T04:52:38;12.45;;;8.75;;
34805;SDS011;65084;42.196;25.326;2024-02-26T04:55:05;13.35;;;7.65;;
34805;SDS011;65084;42.196;25.326;2024-02-26T04:57:34;12.80;;;8.57;;
34805;SDS011;65084;42.196;25.326;2024-02-26T05:00:02;14.18;;;8.63;;
34805;SDS011;65084;42.196;25.326;2024-02-26T05:02:30;12.95;;;8.68;;
34805;SDS011;65084;42.196;25.326;2024-02-26T05:04:58;14.80;;;9.95;;
34805;SDS011;65084;42.196;25.326;2024-02-26T05:07:25;12.27;;;9.55;;
34805;SDS011;65084;42.196;25.326;2024-02-26T05:09:53;20.67;;;9.38;;
34805;SDS011;65084;42.196;25.326;2024-02-26T05:12:21;14.32;;;9.32;;
34805;SDS011;65084;42.196;25.326;2024-02-26T05:14:49;12.13;;;9.00;;
34805;SDS011;65084;42.196;25.326;2024-02-26T05:17:17;25.17;;;15.77;;
34805;SDS011;65084;42.196;25.326;2024-02-26T05:19:44;23.20;;;14.93;;
34805;SDS011;65084;42.196;25.326;2024-02-26T05:22:11;16.48;;;10.30;;
34805;SDS011;65084;42.196;25.326;2024-02-26T05:24:39;14.57;;;8.82;;
34805;SDS011;65084;42.196;25.326;2024-02-26T05:27:06;18.05;;;10.25;;
34805;SDS011;65084;42.196;25.326;2024-02-26T05:29:33;12.13;;;9.43;;
34805;SDS011;65084;42.196;25.326;2024-02-26T05:32:02;14.60;;;9.70;;
34805;SDS011;65084;42.196;25.326;2024-02-26T05:34:30;21.05;;;10.18;;
34805;SDS011;65084;42.196;25.326;2024-02-26T05:36:58;15.70;;;9.98;;
34805;SDS011;65084;42.196;25.326;2024-02-26T05:39:25;17.67;;;9.18;;
34805;SDS011;65084;42.196;25.326;2024-02-26T05:41:53;16.20;;;8.85;;
34805;SDS011;65084;42.196;25.326;2024-02-26T05:44:22;12.18;;;8.27;;
34805;SDS011;65084;42.196;25.326;2024-02-26T05:46:49;14.25;;;9.60;;
34805;SDS011;65084;42.196;25.326;2024-02-26T05:49:18;15.68;;;9.52;;
34805;SDS011;65084;42.196;25.326;2024-02-26T05:51:46;15.55;;;10.68;;
34805;SDS011;65084;42.196;25.326;2024-02-26T05:54:13;16.63;;;10.23;;
34805;SDS011;65084;42.196;25.326;2024-02-26T05:56:41;24.63;;;11.75;;
34805;SDS011;65084;42.196;25.326;2024-02-26T05:59:08;22.33;;;11.65;;
34805;SDS011;65084;42.196;25.326;2024-02-26T06:01:36;18.45;;;10.82;;
34805;SDS011;65084;42.196;25.326;2024-02-26T06:04:03;16.73;;;10.07;;
34805;SDS011;65084;42.196;25.326;2024-02-26T06:06:32;17.63;;;10.55;;
34805;SDS011;65084;42.196;25.326;2024-02-26T06:08:59;14.48;;;9.13;;
34805;SDS011;65084;42.196;25.326;2024-02-26T06:11:26;15.23;;;9.77;;
34805;SDS011;65084;42.196;25.326;2024-02-26T06:13:53;17.95;;;10.48;;
34805;SDS011;65084;42.196;25.326;2024-02-26T06:16:21;14.50;;;9.88;;
34805;SDS011;65084;42.196;25.326;2024-02-26T06:18:48;24.60;;;10.25;;
34805;SDS011;65084;42.196;25.326;2024-02-26T06:21:15;22.17;;;11.38;;
34805;SDS011;65084;42.196;25.326;2024-02-26T06:23:44;16.30;;;10.75;;
34805;SDS011;65084;42.196;25.326;2024-02-26T06:26:11;17.90;;;11.20;;
34805;SDS011;65084;42.196;25.326;2024-02-26T06:28:39;37.70;;;11.00;;
34805;SDS011;65084;42.196;25.326;2024-02-26T06:31:06;19.27;;;11.27;;
34805;SDS011;65084;42.196;25.326;2024-02-26T06:33:33;21.67;;;11.52;;
34805;SDS011;65084;42.196;25.326;2024-02-26T06:36:01;20.15;;;11.13;;
34805;SDS011;65084;42.196;25.326;2024-02-26T06:38:29;14.05;;;10.38;;
34805;SDS011;65084;42.196;25.326;2024-02-26T06:40:58;24.63;;;12.25;;
34805;SDS011;65084;42.196;25.326;2024-02-26T06:43:25;29.60;;;11.85;;
34805;SDS011;65084;42.196;25.326;2024-02-26T06:45:52;17.00;;;11.98;;
34805;SDS011;65084;42.196;25.326;2024-02-26T06:48:20;17.95;;;12.25;;
34805;SDS011;65084;42.196;25.326;2024-02-26T06:50:47;17.40;;;11.05;;
34805;SDS011;65084;42.196;25.326;2024-02-26T06:53:14;22.00;;;10.73;;
34805;SDS011;65084;42.196;25.326;2024-02-26T06:55:41;15.18;;;10.07;;
34805;SDS011;65084;42.196;25.326;2024-02-26T06:58:10;14.35;;;11.05;;
34805;SDS011;65084;42.196;25.326;2024-02-26T07:00:37;21.73;;;12.85;;
34805;SDS011;65084;42.196;25.326;2024-02-26T07:03:05;20.20;;;10.10;;
34805;SDS011;65084;42.196;25.326;2024-02-26T07:05:32;16.58;;;10.18;;
34805;SDS011;65084;42.196;25.326;2024-02-26T07:07:59;14.43;;;9.65;;
34805;SDS011;65084;42.196;25.326;2024-02-26T07:10:26;14.07;;;9.98;;
34805;SDS011;65084;42.196;25.326;2024-02-26T07:12:54;18.15;;;10.15;;
34805;SDS011;65084;42.196;25.326;2024-02-26T07:15:22;16.88;;;9.88;;
34805;SDS011;65084;42.196;25.326;2024-02-26T07:17:50;23.30;;;11.30;;
34805;SDS011;65084;42.196;25.326;2024-02-26T07:20:17;17.10;;;11.82;;
34805;SDS011;65084;42.196;25.326;2024-02-26T07:22:44;22.08;;;11.25;;
34805;SDS011;65084;42.196;25.326;2024-02-26T07:25:11;17.90;;;10.65;;
34805;SDS011;65084;42.196;25.326;2024-02-26T07:27:39;16.90;;;10.93;;
34805;SDS011;65084;42.196;25.326;2024-02-26T07:30:07;15.50;;;10.63;;
34805;SDS011;65084;42.196;25.326;2024-02-26T07:32:36;20.38;;;10.82;;
34805;SDS011;65084;42.196;25.326;2024-02-26T07:35:03;16.52;;;11.13;;
34805;SDS011;65084;42.196;25.326;2024-02-26T07:37:31;17.90;;;11.32;;
34805;SDS011;65084;42.196;25.326;2024-02-26T07:39:58;17.17;;;10.07;;
34805;SDS011;65084;42.196;25.326;2024-02-26T07:42:25;14.65;;;10.38;;
34805;SDS011;65084;42.196;25.326;2024-02-26T07:44:53;24.92;;;16.30;;
34805;SDS011;65084;42.196;25.326;2024-02-26T07:47:20;25.10;;;15.15;;
34805;SDS011;65084;42.196;25.326;2024-02-26T07:49:49;24.20;;;15.07;;
34805;SDS011;65084;42.196;25.326;2024-02-26T07:52:16;18.48;;;12.00;;
34805;SDS011;65084;42.196;25.326;2024-02-26T07:54:44;16.95;;;11.48;;
34805;SDS011;65084;42.196;25.326;2024-02-26T07:57:11;17.40;;;10.38;;
34805;SDS011;65084;42.196;25.326;2024-02-26T07:59:41;16.20;;;11.10;;
34805;SDS011;65084;42.196;25.326;2024-02-26T08:02:10;24.55;;;11.88;;
34805;SDS011;65084;42.196;25.326;2024-02-26T08:04:37;18.20;;;12.45;;
34805;SDS011;65084;42.196;25.326;2024-02-26T08:07:05;20.35;;;11.75;;
34805;SDS011;65084;42.196;25.326;2024-02-26T08:09:33;18.90;;;11.55;;
34805;SDS011;65084;42.196;25.326;2024-02-26T08:12:00;20.30;;;10.90;;
34805;SDS011;65084;42.196;25.326;2024-02-26T08:14:27;19.02;;;11.10;;
34805;SDS011;65084;42.196;25.326;2024-02-26T08:16:55;17.70;;;12.52;;
34805;SDS011;65084;42.196;25.326;2024-02-26T08:19:22;17.50;;;10.90;;
34805;SDS011;65084;42.196;25.326;2024-02-26T08:21:49;18.45;;;11.27;;
34805;SDS011;65084;42.196;25.326;2024-02-26T08:24:18;17.95;;;10.82;;
34805;SDS011;65084;42.196;25.326;2024-02-26T08:26:45;14.57;;;10.02;;
34805;SDS011;65084;42.196;25.326;2024-02-26T08:29:12;19.85;;;10.65;;
34805;SDS011;65084;42.196;25.326;2024-02-26T08:31:39;15.27;;;10.23;;
34805;SDS011;65084;42.196;25.326;2024-02-26T08:34:07;13.93;;;10.63;;
34805;SDS011;65084;42.196;25.326;2024-02-26T08:36:34;17.83;;;10.93;;
34805;SDS011;65084;42.196;25.326;2024-02-26T08:39:02;16.13;;;11.38;;
34805;SDS011;65084;42.196;25.326;2024-02-26T08:41:30;14.98;;;11.43;;
34805;SDS011;65084;42.196;25.326;2024-02-26T08:43:58;22.95;;;12.13;;
34805;SDS011;65084;42.196;25.326;2024-02-26T08:46:25;20.42;;;13.43;;
34805;SDS011;65084;42.196;25.326;2024-02-26T08:48:52;19.42;;;12.43;;
34805;SDS011;65084;42.196;25.326;2024-02-26T08:51:19;21.42;;;13.07;;
34805;SDS011;65084;42.196;25.326;2024-02-26T08:53:47;25.08;;;14.77;;
34805;SDS011;65084;42.196;25.326;2024-02-26T08:56:15;28.38;;;15.43;;
34805;SDS011;65084;42.196;25.326;2024-02-26T08:58:44;26.38;;;16.48;;
34805;SDS011;65084;42.196;25.326;2024-02-26T09:01:13;27.90;;;15.52;;
34805;SDS011;65084;42.196;25.326;2024-02-26T09:03:41;26.05;;;17.75;;
34805;SDS011;65084;42.196;25.326;2024-02-26T09:06:09;26.77;;;17.63;;
34805;SDS011;65084;42.196;25.326;2024-02-26T09:08:36;29.63;;;18.33;;
34805;SDS011;65084;42.196;25.326;2024-02-26T09:11:04;35.20;;;21.40;;
34805;SDS011;65084;42.196;25.326;2024-02-26T09:13:31;30.20;;;17.70;;
34805;SDS011;65084;42.196;25.326;2024-02-26T09:16:00;35.90;;;18.67;;
34805;SDS011;65084;42.196;25.326;2024-02-26T09:18:27;26.05;;;18.10;;
34805;SDS011;65084;42.196;25.326;2024-02-26T09:20:55;26.90;;;17.40;;
34805;SDS011;65084;42.196;25.326;2024-02-26T09:23:22;27.30;;;14.60;;
34805;SDS011;65084;42.196;25.326;2024-02-26T09:25:49;23.73;;;15.60;;
34805;SDS011;65084;42.196;25.326;2024-02-26T09:28:16;26.65;;;15.07;;
34805;SDS011;65084;42.196;25.326;2024-02-26T09:30:44;25.80;;;13.75;;
34805;SDS011;65084;42.196;25.326;2024-02-26T09:33:14;22.25;;;12.38;;
34805;SDS011;65084;42.196;25.326;2024-02-26T09:35:41;23.67;;;14.25;;
34805;SDS011;65084;42.196;25.326;2024-02-26T09:38:09;21.95;;;14.38;;
34805;SDS011;65084;42.196;25.326;2024-02-26T09:40:36;21.05;;;10.20;;
34805;SDS011;65084;42.196;25.326;2024-02-26T09:43:04;16.73;;;8.05;;
34805;SDS011;65084;42.196;25.326;2024-02-26T09:45:32;14.82;;;8.25;;
34805;SDS011;65084;42.196;25.326;2024-02-26T09:48:00;8.63;;;6.63;;
34805;SDS011;65084;42.196;25.326;2024-02-26T09:50:31;8.55;;;6.28;;
34805;SDS011;65084;42.196;25.326;2024-02-26T09:52:58;13.30;;;8.40;;
34805;SDS011;65084;42.196;25.326;2024-02-26T09:55:27;7.22;;;5.85;;
34805;SDS011;65084;42.196;25.326;2024-02-26T09:57:55;8.38;;;6.28;;
34805;SDS011;65084;42.196;25.326;2024-02-26T10:00:22;8.25;;;6.10;;
34805;SDS011;65084;42.196;25.326;2024-02-26T10:02:50;8.73;;;7.53;;
34805;SDS011;65084;42.196;25.326;2024-02-26T10:05:18;13.30;;;8.60;;
34805;SDS011;65084;42.196;25.326;2024-02-26T10:07:47;10.68;;;6.50;;
34805;SDS011;65084;42.196;25.326;2024-02-26T10:10:14;15.45;;;6.25;;
34805;SDS011;65084;42.196;25.326;2024-02-26T10:12:42;14.70;;;6.38;;
34805;SDS011;65084;42.196;25.326;2024-02-26T10:15:09;14.18;;;6.80;;
34805;SDS011;65084;42.196;25.326;2024-02-26T10:17:36;10.93;;;6.38;;
34805;SDS011;65084;42.196;25.326;2024-02-26T10:20:11;6.45;;;5.85;;
34805;SDS011;65084;42.196;25.326;2024-02-26T10:22:40;12.90;;;7.75;;
34805;SDS011;65084;42.196;25.326;2024-02-26T10:25:09;8.80;;;7.82;;
34805;SDS011;65084;42.196;25.326;2024-02-26T10:27:36;9.45;;;7.18;;
34805;SDS011;65084;42.196;25.326;2024-02-26T10:30:04;12.63;;;8.95;;
34805;SDS011;65084;42.196;25.326;2024-02-26T10:32:32;13.52;;;8.15;;
34805;SDS011;65084;42.196;25.326;2024-02-26T10:35:00;16.13;;;6.85;;
34805;SDS011;65084;42.196;25.326;2024-02-26T10:37:28;8.75;;;6.70;;
34805;SDS011;65084;42.196;25.326;2024-02-26T10:39:56;12.43;;;6.63;;
34805;SDS011;65084;42.196;25.326;2024-02-26T10:42:25;12.70;;;10.45;;
34805;SDS011;65084;42.196;25.326;2024-02-26T10:44:52;21.55;;;10.90;;
34805;SDS011;65084;42.196;25.326;2024-02-26T10:47:19;11.70;;;8.27;;
34805;SDS011;65084;42.196;25.326;2024-02-26T10:49:47;6.68;;;5.50;;
34805;SDS011;65084;42.196;25.326;2024-02-26T10:52:15;6.93;;;4.97;;
34805;SDS011;65084;42.196;25.326;2024-02-26T10:54:42;9.20;;;5.85;;
34805;SDS011;65084;42.196;25.326;2024-02-26T10:57:12;7.68;;;5.82;;
34805;SDS011;65084;42.196;25.326;2024-02-26T10:59:41;12.05;;;4.85;;
34805;SDS011;65084;42.196;25.326;2024-02-26T11:02:09;27.50;;;20.25;;
34805;SDS011;65084;42.196;25.326;2024-02-26T11:04:37;12.88;;;6.60;;
34805;SDS011;65084;42.196;25.326;2024-02-26T11:07:04;8.02;;;5.35;;
34805;SDS011;65084;42.196;25.326;2024-02-26T11:09:32;8.85;;;6.15;;
34805;SDS011;65084;42.196;25.326;2024-02-26T11:12:00;17.63;;;13.80;;
34805;SDS011;65084;42.196;25.326;2024-02-26T11:14:33;29.50;;;18.10;;
34805;SDS011;65084;42.196;25.326;2024-02-26T11:17:02;18.50;;;15.55;;
34805;SDS011;65084;42.196;25.326;2024-02-26T11:19:30;36.55;;;26.70;;
34805;SDS011;65084;42.196;25.326;2024-02-26T11:22:00;29.77;;;23.98;;
34805;SDS011;65084;42.196;25.326;2024-02-26T11:24:27;10.02;;;6.47;;
34805;SDS011;65084;42.196;25.326;2024-02-26T11:26:55;8.73;;;4.95;;
34805;SDS011;65084;42.196;25.326;2024-02-26T11:29:25;13.52;;;4.93;;
34805;SDS011;65084;42.196;25.326;2024-02-26T11:31:53;8.13;;;4.63;;
34805;SDS011;65084;42.196;25.326;2024-02-26T11:34:22;5.68;;;5.05;;
34805;SDS011;65084;42.196;25.326;2024-02-26T11:36:49;7.63;;;4.18;;
34805;SDS011;65084;42.196;25.326;2024-02-26T11:39:16;6.63;;;4.45;;
34805;SDS011;65084;42.196;25.326;2024-02-26T11:41:44;13.63;;;4.50;;
34805;SDS011;65084;42.196;25.326;2024-02-26T11:44:11;5.72;;;4.20;;
34805;SDS011;65084;42.196;25.326;2024-02-26T11:46:39;7.88;;;4.43;;
34805;SDS011;65084;42.196;25.326;2024-02-26T11:51:52;7.65;;;5.00;;
34805;SDS011;65084;42.196;25.326;2024-02-26T11:57:02;13.45;;;5.70;;
34805;SDS011;65084;42.196;25.326;2024-02-26T11:59:37;9.57;;;5.40;;
34805;SDS011;65084;42.196;25.326;2024-02-26T12:02:05;7.53;;;5.15;;
34805;SDS011;65084;42.196;25.326;2024-02-26T12:04:34;10.18;;;6.05;;
34805;SDS011;65084;42.196;25.326;2024-02-26T12:07:04;8.20;;;6.20;;
34805;SDS011;65084;42.196;25.326;2024-02-26T12:09:32;8.45;;;5.50;;
34805;SDS011;65084;42.196;25.326;2024-02-26T12:11:59;5.97;;;5.40;;
34805;SDS011;65084;42.196;25.326;2024-02-26T12:14:26;9.60;;;5.53;;
34805;SDS011;65084;42.196;25.326;2024-02-26T12:16:52;11.73;;;6.40;;
34805;SDS011;65084;42.196;25.326;2024-02-26T12:19:20;9.55;;;6.22;;
34805;SDS011;65084;42.196;25.326;2024-02-26T12:21:51;10.02;;;6.55;;
34805;SDS011;65084;42.196;25.326;2024-02-26T12:24:20;8.25;;;6.28;;
34805;SDS011;65084;42.196;25.326;2024-02-26T12:26:47;9.07;;;6.72;;
34805;SDS011;65084;42.196;25.326;2024-02-26T12:29:14;10.52;;;5.43;;
34805;SDS011;65084;42.196;25.326;2024-02-26T12:31:42;13.98;;;5.28;;
34805;SDS011;65084;42.196;25.326;2024-02-26T12:34:09;9.70;;;5.93;;
34805;SDS011;65084;42.196;25.326;2024-02-26T12:36:37;13.02;;;6.47;;
34805;SDS011;65084;42.196;25.326;2024-02-26T12:39:05;11.95;;;6.38;;
34805;SDS011;65084;42.196;25.326;2024-02-26T12:41:34;8.18;;;6.10;;
34805;SDS011;65084;42.196;25.326;2024-02-26T12:44:01;8.70;;;5.88;;
34805;SDS011;65084;42.196;25.326;2024-02-26T12:46:29;7.70;;;5.70;;
34805;SDS011;65084;42.196;25.326;2024-02-26T12:48:57;11.68;;;6.50;;
34805;SDS011;65084;42.196;25.326;2024-02-26T12:51:25;7.68;;;5.20;;
34805;SDS011;65084;42.196;25.326;2024-02-26T12:53:53;10.70;;;4.90;;
34805;SDS011;65084;42.196;25.326;2024-02-26T12:56:22;9.50;;;5.47;;
34805;SDS011;65084;42.196;25.326;2024-02-26T12:58:51;7.05;;;5.15;;
34805;SDS011;65084;42.196;25.326;2024-02-26T13:01:20;11.02;;;5.47;;
34805;SDS011;65084;42.196;25.326;2024-02-26T13:03:48;6.28;;;5.32;;
34805;SDS011;65084;42.196;25.326;2024-02-26T13:06:16;10.55;;;5.45;;
34805;SDS011;65084;42.196;25.326;2024-02-26T13:08:44;9.90;;;5.88;;
34805;SDS011;65084;42.196;25.326;2024-02-26T13:11:12;7.05;;;6.00;;
34805;SDS011;65084;42.196;25.326;2024-02-26T13:13:39;11.95;;;6.45;;
34805;SDS011;65084;42.196;25.326;2024-02-26T13:16:13;15.35;;;5.60;;
34805;SDS011;65084;42.196;25.326;2024-02-26T13:18:40;10.93;;;5.68;;
34805;SDS011;65084;42.196;25.326;2024-02-26T13:21:09;11.25;;;5.45;;
34805;SDS011;65084;42.196;25.326;2024-02-26T13:23:37;17.40;;;7.82;;
34805;SDS011;65084;42.196;25.326;2024-02-26T13:26:04;19.17;;;7.40;;
34805;SDS011;65084;42.196;25.326;2024-02-26T13:28:31;15.23;;;6.32;;
34805;SDS011;65084;42.196;25.326;2024-02-26T13:30:59;8.07;;;5.65;;
34805;SDS011;65084;42.196;25.326;2024-02-26T13:33:30;11.65;;;6.53;;
34805;SDS011;65084;42.196;25.326;2024-02-26T13:35:57;16.80;;;6.88;;
34805;SDS011;65084;42.196;25.326;2024-02-26T13:38:25;20.52;;;7.70;;
34805;SDS011;65084;42.196;25.326;2024-02-26T13:40:53;24.38;;;11.20;;
34805;SDS011;65084;42.196;25.326;2024-02-26T13:43:20;21.75;;;10.30;;
34805;SDS011;65084;42.196;25.326;2024-02-26T13:45:47;12.38;;;7.65;;
34805;SDS011;65084;42.196;25.326;2024-02-26T13:48:15;11.25;;;6.75;;
34805;SDS011;65084;42.196;25.326;2024-02-26T13:50:44;9.38;;;6.60;;
34805;SDS011;65084;42.196;25.326;2024-02-26T13:53:11;10.15;;;6.18;;
34805;SDS011;65084;42.196;25.326;2024-02-26T13:55:39;15.32;;;6.50;;
34805;SDS011;65084;42.196;25.326;2024-02-26T13:58:08;16.15;;;5.78;;
34805;SDS011;65084;42.196;25.326;2024-02-26T14:00:38;10.05;;;5.38;;
34805;SDS011;65084;42.196;25.326;2024-02-26T14:03:06;8.52;;;6.30;;
34805;SDS011;65084;42.196;25.326;2024-02-26T14:05:34;15.98;;;5.97;;
34805;SDS011;65084;42.196;25.326;2024-02-26T14:08:03;18.90;;;7.63;;
34805;SDS011;65084;42.196;25.326;2024-02-26T14:10:30;29.58;;;6.97;;
34805;SDS011;65084;42.196;25.326;2024-02-26T14:12:57;17.95;;;7.18;;
34805;SDS011;65084;42.196;25.326;2024-02-26T14:15:25;18.50;;;5.50;;
34805;SDS011;65084;42.196;25.326;2024-02-26T14:17:53;14.45;;;6.05;;
34805;SDS011;65084;42.196;25.326;2024-02-26T14:20:21;14.23;;;6.57;;
34805;SDS011;65084;42.196;25.326;2024-02-26T14:22:48;16.20;;;7.32;;
34805;SDS011;65084;42.196;25.326;2024-02-26T14:25:17;12.60;;;6.15;;
34805;SDS011;65084;42.196;25.326;2024-02-26T14:27:45;22.35;;;7.13;;
34805;SDS011;65084;42.196;25.326;2024-02-26T14:30:12;26.23;;;6.82;;